sensor_id;sensor_type;location;lat;lon;timestamp;P1;durP1;ratioP1;P2;durP2;ratioP2
80510;SDS011;69840;53.040;8.600;2023-06-24T00:02:06;12.80;;;5.93;;
80510;SDS011;69840;53.040;8.600;2023-06-24T00:06:19;13.95;;;5.80;;
80510;SDS011;69840;53.040;8.600;2023-06-24T00:10:32;11.32;;;5.78;;
80510;SDS011;69840;53.040;8.600;2023-06-24T00:14:46;13.13;;;6.53;;
80510;SDS011;69840;53.040;8.600;2023-06-24T00:18:59;12.73;;;6.32;;
80510;SDS011;69840;53.040;8.600;2023-06-24T00:23:13;10.38;;;5.95;;
80510;SDS011;69840;53.040;8.600;2023-06-24T00:27:31;15.40;;;6.97;;
80510;SDS011;69840;53.040;8.600;2023-06-24T00:31:44;11.52;;;6.55;;
80510;SDS011;69840;53.040;8.600;2023-06-24T00:35:56;17.33;;;6.88;;
80510;SDS011;69840;53.040;8.600;2023-06-24T00:40:09;15.77;;;6.80;;
80510;SDS011;69840;53.040;8.600;2023-06-24T00:44:22;11.32;;;6.13;;
80510;SDS011;69840;53.040;8.600;2023-06-24T00:48:35;15.75;;;6.55;;
80510;SDS011;69840;53.040;8.600;2023-06-24T00:52:48;14.60;;;7.22;;
80510;SDS011;69840;53.040;8.600;2023-06-24T00:57:01;15.73;;;6.55;;
80510;SDS011;69840;53.040;8.600;2023-06-24T01:01:14;12.00;;;6.93;;
80510;SDS011;69840;53.040;8.600;2023-06-24T01:05:29;10.52;;;6.25;;
80510;SDS011;69840;53.040;8.600;2023-06-24T01:09:43;10.38;;;5.93;;
80510;SDS011;69840;53.040;8.600;2023-06-24T01:13:56;14.35;;;6.60;;
80510;SDS011;69840;53.040;8.600;2023-06-24T01:27:19;11.55;;;6.35;;
80510;SDS011;69840;53.040;8.600;2023-06-24T01:31:48;15.95;;;7.72;;
80510;SDS011;69840;53.040;8.600;2023-06-24T01:36:20;12.98;;;6.50;;
80510;SDS011;69840;53.040;8.600;2023-06-24T01:40:38;15.90;;;7.28;;
80510;SDS011;69840;53.040;8.600;2023-06-24T01:44:57;10.90;;;7.22;;
80510;SDS011;69840;53.040;8.600;2023-06-24T01:49:12;12.95;;;6.65;;
80510;SDS011;69840;53.040;8.600;2023-06-24T01:53:27;14.77;;;7.15;;
80510;SDS011;69840;53.040;8.600;2023-06-24T01:57:43;13.77;;;7.07;;
80510;SDS011;69840;53.040;8.600;2023-06-24T02:01:57;13.73;;;6.50;;
80510;SDS011;69840;53.040;8.600;2023-06-24T02:06:12;14.77;;;8.13;;
80510;SDS011;69840;53.040;8.600;2023-06-24T02:10:27;13.45;;;6.30;;
80510;SDS011;69840;53.040;8.600;2023-06-24T02:14:41;12.77;;;7.47;;
80510;SDS011;69840;53.040;8.600;2023-06-24T02:18:55;16.25;;;7.45;;
80510;SDS011;69840;53.040;8.600;2023-06-24T02:23:10;16.88;;;8.18;;
80510;SDS011;69840;53.040;8.600;2023-06-24T02:27:24;14.32;;;7.60;;
80510;SDS011;69840;53.040;8.600;2023-06-24T02:31:37;13.43;;;7.38;;
80510;SDS011;69840;53.040;8.600;2023-06-24T02:35:50;14.85;;;7.95;;
80510;SDS011;69840;53.040;8.600;2023-06-24T02:40:04;15.43;;;7.80;;
80510;SDS011;69840;53.040;8.600;2023-06-24T02:44:18;13.93;;;7.25;;
80510;SDS011;69840;53.040;8.600;2023-06-24T02:48:31;13.45;;;6.55;;
80510;SDS011;69840;53.040;8.600;2023-06-24T02:52:45;14.50;;;7.53;;
80510;SDS011;69840;53.040;8.600;2023-06-24T02:57:01;13.25;;;6.45;;
80510;SDS011;69840;53.040;8.600;2023-06-24T03:01:34;15.02;;;7.78;;
80510;SDS011;69840;53.040;8.600;2023-06-24T03:05:48;15.38;;;6.57;;
80510;SDS011;69840;53.040;8.600;2023-06-24T03:10:02;14.52;;;6.93;;
80510;SDS011;69840;53.040;8.600;2023-06-24T03:14:16;12.73;;;6.60;;
80510;SDS011;69840;53.040;8.600;2023-06-24T03:18:29;13.93;;;7.30;;
80510;SDS011;69840;53.040;8.600;2023-06-24T03:22:42;12.35;;;7.70;;
80510;SDS011;69840;53.040;8.600;2023-06-24T03:26:58;11.98;;;6.78;;
80510;SDS011;69840;53.040;8.600;2023-06-24T03:31:19;11.93;;;6.68;;
80510;SDS011;69840;53.040;8.600;2023-06-24T03:35:33;12.30;;;6.80;;
80510;SDS011;69840;53.040;8.600;2023-06-24T03:39:48;16.33;;;8.02;;
80510;SDS011;69840;53.040;8.600;2023-06-24T03:44:02;12.38;;;6.45;;
80510;SDS011;69840;53.040;8.600;2023-06-24T03:48:16;17.08;;;7.13;;
80510;SDS011;69840;53.040;8.600;2023-06-24T03:52:29;15.57;;;6.25;;
80510;SDS011;69840;53.040;8.600;2023-06-24T03:56:42;14.10;;;7.25;;
80510;SDS011;69840;53.040;8.600;2023-06-24T04:00:56;13.02;;;7.35;;
80510;SDS011;69840;53.040;8.600;2023-06-24T04:05:11;13.95;;;6.65;;
80510;SDS011;69840;53.040;8.600;2023-06-24T04:09:24;11.90;;;6.68;;
80510;SDS011;69840;53.040;8.600;2023-06-24T04:13:37;11.38;;;6.63;;
80510;SDS011;69840;53.040;8.600;2023-06-24T04:17:50;19.92;;;6.72;;
80510;SDS011;69840;53.040;8.600;2023-06-24T04:22:05;13.23;;;7.82;;
80510;SDS011;69840;53.040;8.600;2023-06-24T04:26:18;15.95;;;7.93;;
80510;SDS011;69840;53.040;8.600;2023-06-24T04:30:31;15.90;;;8.65;;
80510;SDS011;69840;53.040;8.600;2023-06-24T04:34:46;18.77;;;9.50;;
80510;SDS011;69840;53.040;8.600;2023-06-24T04:39:00;18.52;;;8.45;;
80510;SDS011;69840;53.040;8.600;2023-06-24T04:43:14;20.00;;;9.38;;
80510;SDS011;69840;53.040;8.600;2023-06-24T04:47:27;22.52;;;9.65;;
80510;SDS011;69840;53.040;8.600;2023-06-24T04:51:40;17.67;;;9.05;;
80510;SDS011;69840;53.040;8.600;2023-06-24T04:55:53;17.00;;;9.15;;
80510;SDS011;69840;53.040;8.600;2023-06-24T05:00:06;14.48;;;8.02;;
80510;SDS011;69840;53.040;8.600;2023-06-24T05:04:19;14.07;;;7.72;;
80510;SDS011;69840;53.040;8.600;2023-06-24T05:08:32;13.50;;;7.20;;
80510;SDS011;69840;53.040;8.600;2023-06-24T05:12:44;12.60;;;8.25;;
80510;SDS011;69840;53.040;8.600;2023-06-24T05:16:57;16.08;;;8.00;;
80510;SDS011;69840;53.040;8.600;2023-06-24T05:21:10;15.93;;;7.85;;
80510;SDS011;69840;53.040;8.600;2023-06-24T05:25:23;15.48;;;8.40;;
80510;SDS011;69840;53.040;8.600;2023-06-24T05:29:36;12.52;;;6.85;;
80510;SDS011;69840;53.040;8.600;2023-06-24T05:33:49;12.32;;;7.45;;
80510;SDS011;69840;53.040;8.600;2023-06-24T05:38:01;12.45;;;7.13;;
80510;SDS011;69840;53.040;8.600;2023-06-24T05:42:14;14.82;;;7.05;;
80510;SDS011;69840;53.040;8.600;2023-06-24T05:46:27;12.23;;;6.53;;
80510;SDS011;69840;53.040;8.600;2023-06-24T05:50:40;10.50;;;6.32;;
80510;SDS011;69840;53.040;8.600;2023-06-24T05:54:52;10.45;;;7.10;;
80510;SDS011;69840;53.040;8.600;2023-06-24T05:59:05;12.75;;;6.07;;
80510;SDS011;69840;53.040;8.600;2023-06-24T06:03:18;12.85;;;7.05;;
80510;SDS011;69840;53.040;8.600;2023-06-24T06:07:30;11.57;;;5.85;;
80510;SDS011;69840;53.040;8.600;2023-06-24T06:11:43;16.13;;;7.15;;
80510;SDS011;69840;53.040;8.600;2023-06-24T06:15:56;11.70;;;5.38;;
80510;SDS011;69840;53.040;8.600;2023-06-24T06:20:10;11.40;;;5.45;;
80510;SDS011;69840;53.040;8.600;2023-06-24T06:24:23;12.43;;;5.72;;
80510;SDS011;69840;53.040;8.600;2023-06-24T06:28:36;11.40;;;5.07;;
80510;SDS011;69840;53.040;8.600;2023-06-24T06:32:49;8.85;;;5.68;;
80510;SDS011;69840;53.040;8.600;2023-06-24T06:37:01;12.75;;;6.10;;
80510;SDS011;69840;53.040;8.600;2023-06-24T06:41:14;9.65;;;5.82;;
80510;SDS011;69840;53.040;8.600;2023-06-24T06:45:27;10.60;;;7.00;;
80510;SDS011;69840;53.040;8.600;2023-06-24T06:49:41;13.90;;;5.15;;
80510;SDS011;69840;53.040;8.600;2023-06-24T06:53:53;13.55;;;4.53;;
80510;SDS011;69840;53.040;8.600;2023-06-24T06:58:06;9.45;;;4.78;;
80510;SDS011;69840;53.040;8.600;2023-06-24T07:02:19;9.45;;;3.97;;
80510;SDS011;69840;53.040;8.600;2023-06-24T07:06:31;8.88;;;4.30;;
80510;SDS011;69840;53.040;8.600;2023-06-24T07:10:44;6.28;;;3.67;;
80510;SDS011;69840;53.040;8.600;2023-06-24T07:14:57;6.97;;;3.67;;
80510;SDS011;69840;53.040;8.600;2023-06-24T07:19:10;5.88;;;3.35;;
80510;SDS011;69840;53.040;8.600;2023-06-24T07:23:23;7.80;;;4.03;;
80510;SDS011;69840;53.040;8.600;2023-06-24T07:27:35;8.02;;;3.80;;
80510;SDS011;69840;53.040;8.600;2023-06-24T07:31:49;6.82;;;4.10;;
80510;SDS011;69840;53.040;8.600;2023-06-24T07:36:02;6.78;;;4.32;;
80510;SDS011;69840;53.040;8.600;2023-06-24T07:40:16;7.50;;;4.00;;
80510;SDS011;69840;53.040;8.600;2023-06-24T07:44:29;5.47;;;3.55;;
80510;SDS011;69840;53.040;8.600;2023-06-24T07:48:42;8.43;;;3.17;;
80510;SDS011;69840;53.040;8.600;2023-06-24T07:52:55;7.03;;;3.47;;
80510;SDS011;69840;53.040;8.600;2023-06-24T07:57:08;7.57;;;3.15;;
80510;SDS011;69840;53.040;8.600;2023-06-24T08:01:21;8.52;;;3.35;;
80510;SDS011;69840;53.040;8.600;2023-06-24T08:05:34;7.25;;;3.47;;
80510;SDS011;69840;53.040;8.600;2023-06-24T08:09:48;6.43;;;3.13;;
80510;SDS011;69840;53.040;8.600;2023-06-24T08:14:00;8.52;;;3.67;;
80510;SDS011;69840;53.040;8.600;2023-06-24T08:18:14;7.57;;;3.72;;
80510;SDS011;69840;53.040;8.600;2023-06-24T08:22:27;4.47;;;2.92;;
80510;SDS011;69840;53.040;8.600;2023-06-24T08:26:40;8.75;;;4.00;;
80510;SDS011;69840;53.040;8.600;2023-06-24T08:30:53;6.10;;;4.03;;
80510;SDS011;69840;53.040;8.600;2023-06-24T08:35:07;6.18;;;4.10;;
80510;SDS011;69840;53.040;8.600;2023-06-24T08:39:21;6.60;;;3.85;;
80510;SDS011;69840;53.040;8.600;2023-06-24T08:43:34;12.82;;;3.72;;
80510;SDS011;69840;53.040;8.600;2023-06-24T08:47:47;7.95;;;4.35;;
80510;SDS011;69840;53.040;8.600;2023-06-24T08:52:04;6.90;;;4.10;;
80510;SDS011;69840;53.040;8.600;2023-06-24T08:56:20;8.30;;;4.70;;
80510;SDS011;69840;53.040;8.600;2023-06-24T09:00:34;9.48;;;4.75;;
80510;SDS011;69840;53.040;8.600;2023-06-24T09:04:47;9.18;;;4.07;;
80510;SDS011;69840;53.040;8.600;2023-06-24T09:09:00;6.78;;;3.67;;
80510;SDS011;69840;53.040;8.600;2023-06-24T09:13:13;5.85;;;3.03;;
80510;SDS011;69840;53.040;8.600;2023-06-24T09:17:26;8.23;;;3.80;;
80510;SDS011;69840;53.040;8.600;2023-06-24T09:21:40;9.52;;;3.92;;
80510;SDS011;69840;53.040;8.600;2023-06-24T09:25:58;7.95;;;3.63;;
80510;SDS011;69840;53.040;8.600;2023-06-24T09:30:21;7.22;;;3.70;;
80510;SDS011;69840;53.040;8.600;2023-06-24T09:34:36;6.82;;;3.90;;
80510;SDS011;69840;53.040;8.600;2023-06-24T09:38:49;6.72;;;3.67;;
80510;SDS011;69840;53.040;8.600;2023-06-24T09:43:02;8.15;;;3.92;;
80510;SDS011;69840;53.040;8.600;2023-06-24T09:47:15;8.43;;;3.92;;
80510;SDS011;69840;53.040;8.600;2023-06-24T09:51:28;7.88;;;4.75;;
80510;SDS011;69840;53.040;8.600;2023-06-24T09:55:42;10.02;;;3.42;;
80510;SDS011;69840;53.040;8.600;2023-06-24T09:59:55;10.88;;;3.85;;
80510;SDS011;69840;53.040;8.600;2023-06-24T10:04:09;7.72;;;3.95;;
80510;SDS011;69840;53.040;8.600;2023-06-24T10:08:30;8.10;;;4.50;;
80510;SDS011;69840;53.040;8.600;2023-06-24T10:12:44;6.95;;;3.75;;
80510;SDS011;69840;53.040;8.600;2023-06-24T10:17:01;7.00;;;4.00;;
80510;SDS011;69840;53.040;8.600;2023-06-24T10:21:15;10.25;;;5.05;;
80510;SDS011;69840;53.040;8.600;2023-06-24T10:25:35;7.13;;;4.15;;
80510;SDS011;69840;53.040;8.600;2023-06-24T10:29:49;10.68;;;4.45;;
80510;SDS011;69840;53.040;8.600;2023-06-24T10:38:37;7.90;;;4.63;;
80510;SDS011;69840;53.040;8.600;2023-06-24T10:42:51;6.68;;;3.97;;
80510;SDS011;69840;53.040;8.600;2023-06-24T10:47:04;8.85;;;4.43;;
80510;SDS011;69840;53.040;8.600;2023-06-24T10:51:17;10.35;;;3.90;;
80510;SDS011;69840;53.040;8.600;2023-06-24T10:55:30;6.40;;;3.95;;
80510;SDS011;69840;53.040;8.600;2023-06-24T10:59:47;5.78;;;3.65;;
80510;SDS011;69840;53.040;8.600;2023-06-24T11:04:05;10.48;;;4.20;;
80510;SDS011;69840;53.040;8.600;2023-06-24T11:08:20;5.68;;;3.03;;
80510;SDS011;69840;53.040;8.600;2023-06-24T11:12:34;5.55;;;3.40;;
80510;SDS011;69840;53.040;8.600;2023-06-24T11:16:47;5.97;;;3.83;;
80510;SDS011;69840;53.040;8.600;2023-06-24T11:21:02;9.13;;;3.72;;
80510;SDS011;69840;53.040;8.600;2023-06-24T11:25:16;8.50;;;4.38;;
80510;SDS011;69840;53.040;8.600;2023-06-24T11:29:31;4.88;;;3.47;;
80510;SDS011;69840;53.040;8.600;2023-06-24T11:33:48;5.63;;;4.05;;
80510;SDS011;69840;53.040;8.600;2023-06-24T11:38:01;7.45;;;3.88;;
80510;SDS011;69840;53.040;8.600;2023-06-24T11:42:14;6.60;;;3.83;;
80510;SDS011;69840;53.040;8.600;2023-06-24T11:46:28;5.05;;;3.90;;
80510;SDS011;69840;53.040;8.600;2023-06-24T11:50:42;4.45;;;3.30;;
80510;SDS011;69840;53.040;8.600;2023-06-24T11:54:55;6.20;;;4.43;;
80510;SDS011;69840;53.040;8.600;2023-06-24T12:03:34;6.25;;;3.83;;
80510;SDS011;69840;53.040;8.600;2023-06-24T12:07:47;6.18;;;3.55;;
80510;SDS011;69840;53.040;8.600;2023-06-24T12:12:00;4.78;;;3.63;;
80510;SDS011;69840;53.040;8.600;2023-06-24T12:16:13;5.85;;;3.97;;
80510;SDS011;69840;53.040;8.600;2023-06-24T12:20:26;5.45;;;3.70;;
80510;SDS011;69840;53.040;8.600;2023-06-24T12:24:40;6.43;;;3.88;;
80510;SDS011;69840;53.040;8.600;2023-06-24T12:28:54;4.63;;;3.50;;
80510;SDS011;69840;53.040;8.600;2023-06-24T12:33:07;5.18;;;3.30;;
80510;SDS011;69840;53.040;8.600;2023-06-24T12:37:20;5.95;;;4.03;;
80510;SDS011;69840;53.040;8.600;2023-06-24T12:41:32;5.55;;;3.85;;
80510;SDS011;69840;53.040;8.600;2023-06-24T12:45:45;5.70;;;3.72;;
80510;SDS011;69840;53.040;8.600;2023-06-24T12:49:58;8.95;;;5.13;;
80510;SDS011;69840;53.040;8.600;2023-06-24T12:54:11;6.30;;;4.15;;
80510;SDS011;69840;53.040;8.600;2023-06-24T12:58:24;5.38;;;3.63;;
80510;SDS011;69840;53.040;8.600;2023-06-24T13:02:37;5.28;;;4.22;;
80510;SDS011;69840;53.040;8.600;2023-06-24T13:06:51;4.97;;;3.95;;
80510;SDS011;69840;53.040;8.600;2023-06-24T13:11:04;6.05;;;4.45;;
80510;SDS011;69840;53.040;8.600;2023-06-24T13:15:17;7.65;;;4.38;;
80510;SDS011;69840;53.040;8.600;2023-06-24T13:19:31;10.55;;;5.18;;
80510;SDS011;69840;53.040;8.600;2023-06-24T13:23:44;5.53;;;4.38;;
80510;SDS011;69840;53.040;8.600;2023-06-24T13:27:57;7.82;;;6.20;;
80510;SDS011;69840;53.040;8.600;2023-06-24T13:32:10;6.75;;;4.25;;
80510;SDS011;69840;53.040;8.600;2023-06-24T13:36:34;5.32;;;4.72;;
80510;SDS011;69840;53.040;8.600;2023-06-24T13:40:48;9.75;;;5.47;;
80510;SDS011;69840;53.040;8.600;2023-06-24T13:45:01;6.53;;;4.55;;
80510;SDS011;69840;53.040;8.600;2023-06-24T13:49:15;6.43;;;5.10;;
80510;SDS011;69840;53.040;8.600;2023-06-24T13:53:28;6.50;;;5.90;;
80510;SDS011;69840;53.040;8.600;2023-06-24T13:57:42;7.47;;;5.43;;
80510;SDS011;69840;53.040;8.600;2023-06-24T14:01:55;6.65;;;4.75;;
80510;SDS011;69840;53.040;8.600;2023-06-24T14:06:09;6.47;;;4.28;;
80510;SDS011;69840;53.040;8.600;2023-06-24T14:10:23;5.43;;;3.83;;
80510;SDS011;69840;53.040;8.600;2023-06-24T14:14:36;5.78;;;4.25;;
80510;SDS011;69840;53.040;8.600;2023-06-24T14:18:50;5.35;;;3.83;;
80510;SDS011;69840;53.040;8.600;2023-06-24T14:23:03;5.72;;;4.28;;
80510;SDS011;69840;53.040;8.600;2023-06-24T14:27:17;8.40;;;4.10;;
80510;SDS011;69840;53.040;8.600;2023-06-24T14:31:30;5.63;;;4.07;;
80510;SDS011;69840;53.040;8.600;2023-06-24T14:35:47;6.15;;;5.50;;
80510;SDS011;69840;53.040;8.600;2023-06-24T14:40:00;7.55;;;5.03;;
80510;SDS011;69840;53.040;8.600;2023-06-24T14:44:13;4.07;;;3.67;;
80510;SDS011;69840;53.040;8.600;2023-06-24T14:48:27;4.85;;;4.00;;
80510;SDS011;69840;53.040;8.600;2023-06-24T14:52:40;6.80;;;3.30;;
80510;SDS011;69840;53.040;8.600;2023-06-24T14:56:53;4.82;;;3.47;;
80510;SDS011;69840;53.040;8.600;2023-06-24T15:01:06;5.53;;;3.90;;
80510;SDS011;69840;53.040;8.600;2023-06-24T15:05:20;4.38;;;3.58;;
80510;SDS011;69840;53.040;8.600;2023-06-24T15:09:33;4.45;;;3.17;;
80510;SDS011;69840;53.040;8.600;2023-06-24T15:13:48;4.85;;;3.55;;
80510;SDS011;69840;53.040;8.600;2023-06-24T15:18:01;5.15;;;3.60;;
80510;SDS011;69840;53.040;8.600;2023-06-24T15:22:14;4.43;;;3.30;;
80510;SDS011;69840;53.040;8.600;2023-06-24T15:26:27;6.32;;;3.60;;
80510;SDS011;69840;53.040;8.600;2023-06-24T15:30:40;5.15;;;3.13;;
80510;SDS011;69840;53.040;8.600;2023-06-24T15:34:53;4.95;;;3.72;;
80510;SDS011;69840;53.040;8.600;2023-06-24T15:39:07;6.82;;;3.40;;
80510;SDS011;69840;53.040;8.600;2023-06-24T15:43:20;5.10;;;3.47;;
80510;SDS011;69840;53.040;8.600;2023-06-24T15:47:34;6.60;;;3.65;;
80510;SDS011;69840;53.040;8.600;2023-06-24T15:51:48;6.00;;;3.13;;
80510;SDS011;69840;53.040;8.600;2023-06-24T15:56:01;10.75;;;3.78;;
80510;SDS011;69840;53.040;8.600;2023-06-24T16:00:15;5.45;;;3.30;;
80510;SDS011;69840;53.040;8.600;2023-06-24T16:04:28;6.15;;;2.92;;
80510;SDS011;69840;53.040;8.600;2023-06-24T16:08:42;4.18;;;2.85;;
80510;SDS011;69840;53.040;8.600;2023-06-24T16:12:55;4.60;;;3.05;;
80510;SDS011;69840;53.040;8.600;2023-06-24T16:17:08;5.28;;;3.47;;
80510;SDS011;69840;53.040;8.600;2023-06-24T16:21:21;4.78;;;3.33;;
80510;SDS011;69840;53.040;8.600;2023-06-24T16:25:34;4.50;;;2.75;;
80510;SDS011;69840;53.040;8.600;2023-06-24T16:29:47;5.10;;;3.30;;
80510;SDS011;69840;53.040;8.600;2023-06-24T16:34:01;5.57;;;3.20;;
80510;SDS011;69840;53.040;8.600;2023-06-24T16:38:14;5.80;;;3.17;;
80510;SDS011;69840;53.040;8.600;2023-06-24T16:42:27;4.97;;;3.55;;
80510;SDS011;69840;53.040;8.600;2023-06-24T16:46:40;6.90;;;3.58;;
80510;SDS011;69840;53.040;8.600;2023-06-24T16:50:54;6.72;;;3.25;;
80510;SDS011;69840;53.040;8.600;2023-06-24T16:55:07;5.60;;;4.05;;
80510;SDS011;69840;53.040;8.600;2023-06-24T16:59:21;6.30;;;3.53;;
80510;SDS011;69840;53.040;8.600;2023-06-24T17:03:34;6.03;;;3.67;;
80510;SDS011;69840;53.040;8.600;2023-06-24T17:07:47;6.97;;;3.50;;
80510;SDS011;69840;53.040;8.600;2023-06-24T17:12:00;5.70;;;3.45;;
80510;SDS011;69840;53.040;8.600;2023-06-24T17:16:13;5.30;;;3.05;;
80510;SDS011;69840;53.040;8.600;2023-06-24T17:20:26;6.25;;;3.70;;
80510;SDS011;69840;53.040;8.600;2023-06-24T17:24:39;5.70;;;3.03;;
80510;SDS011;69840;53.040;8.600;2023-06-24T17:28:53;5.38;;;3.80;;
80510;SDS011;69840;53.040;8.600;2023-06-24T17:33:06;7.10;;;3.97;;
80510;SDS011;69840;53.040;8.600;2023-06-24T17:37:19;6.03;;;3.83;;
80510;SDS011;69840;53.040;8.600;2023-06-24T17:41:32;5.75;;;3.70;;
80510;SDS011;69840;53.040;8.600;2023-06-24T17:45:45;5.47;;;3.90;;
80510;SDS011;69840;53.040;8.600;2023-06-24T17:49:58;5.35;;;3.15;;
80510;SDS011;69840;53.040;8.600;2023-06-24T17:54:11;5.55;;;3.28;;
80510;SDS011;69840;53.040;8.600;2023-06-24T17:58:23;5.03;;;3.38;;
80510;SDS011;69840;53.040;8.600;2023-06-24T18:02:36;9.63;;;4.32;;
80510;SDS011;69840;53.040;8.600;2023-06-24T18:06:49;6.85;;;3.13;;
80510;SDS011;69840;53.040;8.600;2023-06-24T18:11:02;6.60;;;3.13;;
80510;SDS011;69840;53.040;8.600;2023-06-24T18:15:14;5.80;;;4.05;;
80510;SDS011;69840;53.040;8.600;2023-06-24T18:19:27;6.70;;;4.32;;
80510;SDS011;69840;53.040;8.600;2023-06-24T18:23:39;8.10;;;3.92;;
80510;SDS011;69840;53.040;8.600;2023-06-24T18:27:52;6.00;;;3.75;;
80510;SDS011;69840;53.040;8.600;2023-06-24T18:32:04;7.40;;;4.07;;
80510;SDS011;69840;53.040;8.600;2023-06-24T18:36:17;6.32;;;3.85;;
80510;SDS011;69840;53.040;8.600;2023-06-24T18:40:30;6.38;;;4.22;;
80510;SDS011;69840;53.040;8.600;2023-06-24T18:44:42;7.22;;;4.18;;
80510;SDS011;69840;53.040;8.600;2023-06-24T18:48:55;7.10;;;4.40;;
80510;SDS011;69840;53.040;8.600;2023-06-24T18:53:07;5.72;;;3.67;;
80510;SDS011;69840;53.040;8.600;2023-06-24T18:57:20;8.32;;;4.28;;
80510;SDS011;69840;53.040;8.600;2023-06-24T19:01:32;5.03;;;3.60;;
80510;SDS011;69840;53.040;8.600;2023-06-24T19:05:45;6.82;;;3.15;;
80510;SDS011;69840;53.040;8.600;2023-06-24T19:09:57;9.05;;;4.40;;
80510;SDS011;69840;53.040;8.600;2023-06-24T19:14:10;9.13;;;4.53;;
80510;SDS011;69840;53.040;8.600;2023-06-24T19:18:23;6.32;;;3.65;;
80510;SDS011;69840;53.040;8.600;2023-06-24T19:22:35;6.50;;;4.13;;
80510;SDS011;69840;53.040;8.600;2023-06-24T19:26:49;7.57;;;4.45;;
80510;SDS011;69840;53.040;8.600;2023-06-24T19:31:01;5.95;;;3.75;;
80510;SDS011;69840;53.040;8.600;2023-06-24T19:35:17;5.97;;;3.65;;
80510;SDS011;69840;53.040;8.600;2023-06-24T19:39:30;6.95;;;3.75;;
80510;SDS011;69840;53.040;8.600;2023-06-24T19:43:47;6.90;;;3.95;;
80510;SDS011;69840;53.040;8.600;2023-06-24T19:48:00;5.72;;;3.63;;
80510;SDS011;69840;53.040;8.600;2023-06-24T19:52:13;6.88;;;3.30;;
80510;SDS011;69840;53.040;8.600;2023-06-24T19:56:26;6.05;;;3.10;;
80510;SDS011;69840;53.040;8.600;2023-06-24T20:00:38;4.68;;;2.90;;
80510;SDS011;69840;53.040;8.600;2023-06-24T20:04:51;4.72;;;3.03;;
80510;SDS011;69840;53.040;8.600;2023-06-24T20:09:03;6.72;;;3.17;;
80510;SDS011;69840;53.040;8.600;2023-06-24T20:13:16;9.30;;;3.55;;
80510;SDS011;69840;53.040;8.600;2023-06-24T20:17:28;6.65;;;3.25;;
80510;SDS011;69840;53.040;8.600;2023-06-24T20:21:41;5.72;;;4.03;;
80510;SDS011;69840;53.040;8.600;2023-06-24T20:25:53;5.75;;;3.38;;
80510;SDS011;69840;53.040;8.600;2023-06-24T20:30:07;5.68;;;3.45;;
80510;SDS011;69840;53.040;8.600;2023-06-24T20:34:20;9.48;;;4.72;;
80510;SDS011;69840;53.040;8.600;2023-06-24T20:38:32;7.22;;;3.60;;
80510;SDS011;69840;53.040;8.600;2023-06-24T20:42:45;6.90;;;3.78;;
80510;SDS011;69840;53.040;8.600;2023-06-24T20:46:58;8.05;;;3.85;;
80510;SDS011;69840;53.040;8.600;2023-06-24T20:51:11;8.52;;;3.55;;
80510;SDS011;69840;53.040;8.600;2023-06-24T20:55:24;7.07;;;3.90;;
80510;SDS011;69840;53.040;8.600;2023-06-24T20:59:37;7.30;;;4.30;;
80510;SDS011;69840;53.040;8.600;2023-06-24T21:03:49;7.13;;;4.43;;
80510;SDS011;69840;53.040;8.600;2023-06-24T21:08:02;7.50;;;4.00;;
80510;SDS011;69840;53.040;8.600;2023-06-24T21:12:14;6.40;;;3.78;;
80510;SDS011;69840;53.040;8.600;2023-06-24T21:16:27;8.63;;;4.07;;
80510;SDS011;69840;53.040;8.600;2023-06-24T21:20:39;12.63;;;3.88;;
80510;SDS011;69840;53.040;8.600;2023-06-24T21:24:52;7.20;;;4.50;;
80510;SDS011;69840;53.040;8.600;2023-06-24T21:29:05;6.65;;;4.13;;
80510;SDS011;69840;53.040;8.600;2023-06-24T21:33:17;8.85;;;4.57;;
80510;SDS011;69840;53.040;8.600;2023-06-24T21:37:29;7.75;;;4.28;;
80510;SDS011;69840;53.040;8.600;2023-06-24T21:41:42;12.25;;;5.30;;
80510;SDS011;69840;53.040;8.600;2023-06-24T21:45:55;8.73;;;4.35;;
80510;SDS011;69840;53.040;8.600;2023-06-24T21:50:07;8.57;;;4.43;;
80510;SDS011;69840;53.040;8.600;2023-06-24T21:54:20;6.70;;;4.10;;
80510;SDS011;69840;53.040;8.600;2023-06-24T21:58:33;10.30;;;4.78;;
80510;SDS011;69840;53.040;8.600;2023-06-24T22:02:45;9.10;;;5.35;;
80510;SDS011;69840;53.040;8.600;2023-06-24T22:06:58;10.30;;;4.88;;
80510;SDS011;69840;53.040;8.600;2023-06-24T22:11:11;8.35;;;4.32;;
80510;SDS011;69840;53.040;8.600;2023-06-24T22:15:24;9.90;;;4.90;;
80510;SDS011;69840;53.040;8.600;2023-06-24T22:19:36;11.57;;;5.25;;
80510;SDS011;69840;53.040;8.600;2023-06-24T22:23:49;9.63;;;4.88;;
80510;SDS011;69840;53.040;8.600;2023-06-24T22:28:01;8.93;;;4.75;;
80510;SDS011;69840;53.040;8.600;2023-06-24T22:32:14;9.45;;;4.28;;
80510;SDS011;69840;53.040;8.600;2023-06-24T22:36:27;8.95;;;4.63;;
80510;SDS011;69840;53.040;8.600;2023-06-24T22:40:39;9.68;;;5.28;;
80510;SDS011;69840;53.040;8.600;2023-06-24T22:44:52;10.73;;;6.22;;
80510;SDS011;69840;53.040;8.600;2023-06-24T22:49:04;8.68;;;5.25;;
80510;SDS011;69840;53.040;8.600;2023-06-24T22:53:17;9.90;;;5.43;;
80510;SDS011;69840;53.040;8.600;2023-06-24T22:57:29;9.38;;;4.72;;
80510;SDS011;69840;53.040;8.600;2023-06-24T23:01:42;9.80;;;4.30;;
80510;SDS011;69840;53.040;8.600;2023-06-24T23:05:54;10.18;;;5.70;;
80510;SDS011;69840;53.040;8.600;2023-06-24T23:10:07;10.80;;;5.90;;
80510;SDS011;69840;53.040;8.600;2023-06-24T23:14:21;8.95;;;4.95;;
80510;SDS011;69840;53.040;8.600;2023-06-24T23:18:34;11.07;;;5.47;;
80510;SDS011;69840;53.040;8.600;2023-06-24T23:22:47;10.48;;;5.25;;
80510;SDS011;69840;53.040;8.600;2023-06-24T23:27:00;8.80;;;5.70;;
80510;SDS011;69840;53.040;8.600;2023-06-24T23:31:14;12.32;;;6.43;;
80510;SDS011;69840;53.040;8.600;2023-06-24T23:35:26;12.07;;;6.15;;
80510;SDS011;69840;53.040;8.600;2023-06-24T23:39:40;13.35;;;7.13;;
80510;SDS011;69840;53.040;8.600;2023-06-24T23:43:53;10.23;;;5.93;;
80510;SDS011;69840;53.040;8.600;2023-06-24T23:48:05;14.13;;;6.18;;
80510;SDS011;69840;53.040;8.600;2023-06-24T23:52:18;12.93;;;6.90;;
80510;SDS011;69840;53.040;8.600;2023-06-24T23:56:30;15.35;;;6.10;;
